createdAt,value
2018-11-26T00:00:16.976Z,29.37
2018-11-26T00:02:44.716Z,30.57
2018-11-26T00:05:12.497Z,29.43
2018-11-26T00:07:40.226Z,32.37
2018-11-26T00:10:19.508Z,31.87
2018-11-26T00:12:47.317Z,30.77
2018-11-26T00:15:15.035Z,31.17
2018-11-26T00:17:42.723Z,32.10
2018-11-26T00:20:10.459Z,28.47
2018-11-26T00:22:38.179Z,31.97
2018-11-26T00:25:06.507Z,30.37
2018-11-26T00:27:34.271Z,30.10
2018-11-26T00:30:01.977Z,30.00
2018-11-26T00:32:29.690Z,29.53
2018-11-26T00:34:57.424Z,29.50
2018-11-26T00:37:25.123Z,28.73
2018-11-26T00:39:58.537Z,26.63
2018-11-26T00:42:26.232Z,28.67
2018-11-26T00:44:53.957Z,26.80
2018-11-26T00:47:21.685Z,26.87
2018-11-26T00:49:49.362Z,25.70
2018-11-26T00:52:17.034Z,24.80
2018-11-26T00:54:44.765Z,26.90
2018-11-26T00:57:18.049Z,27.97
2018-11-26T00:59:45.770Z,26.93
2018-11-26T01:02:13.467Z,27.70
2018-11-26T01:04:41.253Z,26.90
2018-11-26T01:07:09.011Z,25.47
2018-11-26T01:09:36.699Z,25.67
2018-11-26T01:12:04.414Z,24.37
2018-11-26T01:14:32.135Z,22.33
2018-11-26T01:16:59.821Z,23.07
2018-11-26T01:19:27.515Z,23.30
2018-11-26T01:21:55.326Z,23.00
2018-11-26T01:24:23.032Z,19.93
2018-11-26T01:26:50.744Z,20.60
2018-11-26T01:29:18.537Z,19.57
2018-11-26T01:31:46.268Z,21.53
2018-11-26T01:34:13.966Z,18.87
2018-11-26T01:36:41.727Z,20.30
2018-11-26T01:39:09.421Z,19.57
2018-11-26T01:41:37.192Z,18.60
2018-11-26T01:44:04.951Z,20.37
2018-11-26T01:46:32.652Z,23.73
2018-11-26T01:49:00.329Z,21.47
2018-11-26T01:51:28.072Z,21.47
2018-11-26T01:53:55.795Z,21.37
2018-11-26T01:56:23.473Z,21.70
2018-11-26T01:58:51.210Z,21.87
2018-11-26T02:01:18.959Z,20.33
2018-11-26T02:03:46.630Z,20.10
2018-11-26T02:06:20.019Z,20.93
2018-11-26T02:08:47.695Z,20.17
2018-11-26T02:11:15.382Z,18.83
2018-11-26T02:13:43.118Z,19.77
2018-11-26T02:16:10.792Z,20.17
2018-11-26T02:18:38.473Z,20.23
2018-11-26T02:21:06.220Z,21.77
2018-11-26T02:23:33.893Z,20.47
2018-11-26T02:26:01.710Z,20.77
2018-11-26T02:28:29.475Z,19.77
2018-11-26T02:30:57.185Z,19.00
2018-11-26T02:33:30.583Z,21.90
2018-11-26T02:36:04.053Z,23.27
2018-11-26T02:38:31.766Z,24.67
2018-11-26T02:41:05.128Z,25.33
2018-11-26T02:43:32.880Z,25.20
2018-11-26T02:46:00.560Z,25.47
2018-11-26T02:48:28.256Z,25.40
2018-11-26T02:50:55.948Z,25.87
2018-11-26T02:53:23.640Z,26.13
2018-11-26T02:55:51.312Z,25.07
2018-11-26T02:58:19.045Z,24.73
2018-11-26T03:00:46.756Z,24.93
2018-11-26T03:03:15.351Z,24.93
2018-11-26T03:05:43.418Z,25.50
2018-11-26T03:08:11.101Z,26.20
2018-11-26T03:10:38.779Z,25.37
2018-11-26T03:13:06.547Z,27.20
2018-11-26T03:15:34.224Z,26.03
2018-11-26T03:18:01.935Z,27.53
2018-11-26T03:20:29.668Z,26.83
2018-11-26T03:22:57.357Z,24.17
2018-11-26T03:25:25.069Z,27.17
2018-11-26T03:27:52.850Z,27.07
2018-11-26T03:30:26.171Z,27.77
2018-11-26T03:32:53.949Z,24.00
2018-11-26T03:35:21.648Z,23.50
2018-11-26T03:37:49.372Z,24.80
2018-11-26T03:40:22.557Z,23.13
2018-11-26T03:42:50.616Z,22.03
2018-11-26T03:45:23.936Z,22.00
2018-11-26T03:47:51.606Z,23.00
2018-11-26T03:50:19.322Z,25.07
2018-11-26T03:52:47.014Z,25.20
2018-11-26T03:55:14.722Z,24.27
2018-11-26T03:57:42.424Z,24.83
2018-11-26T04:00:12.454Z,23.37
2018-11-26T04:02:40.156Z,23.00
2018-11-26T04:05:08.791Z,23.73
2018-11-26T04:07:36.506Z,21.20
2018-11-26T04:10:05.857Z,23.63
2018-11-26T04:12:39.156Z,25.80
2018-11-26T04:15:10.365Z,25.23
2018-11-26T04:17:38.034Z,22.60
2018-11-26T04:20:11.355Z,22.57
2018-11-26T04:22:39.072Z,25.40
2018-11-26T04:25:07.863Z,21.80
2018-11-26T04:27:35.676Z,23.60
2018-11-26T04:30:03.613Z,22.07
2018-11-26T04:32:31.343Z,22.47
2018-11-26T04:34:59.050Z,21.37
2018-11-26T04:37:26.735Z,19.47
2018-11-26T04:39:54.448Z,18.77
2018-11-26T04:42:22.276Z,18.23
2018-11-26T04:44:49.971Z,18.97
2018-11-26T04:47:17.684Z,19.63
2018-11-26T04:49:45.424Z,20.60
2018-11-26T04:52:13.208Z,19.27
2018-11-26T04:54:40.914Z,19.73
2018-11-26T04:57:08.658Z,18.57
2018-11-26T04:59:36.366Z,17.93
2018-11-26T05:02:04.358Z,19.40
2018-11-26T05:04:32.084Z,18.10
2018-11-26T05:06:59.797Z,18.10
2018-11-26T05:09:27.492Z,19.57
2018-11-26T05:12:00.943Z,19.10
2018-11-26T05:14:28.632Z,18.43
2018-11-26T05:16:56.359Z,18.67
2018-11-26T05:19:24.083Z,19.00
2018-11-26T05:21:57.313Z,20.47
2018-11-26T05:24:25.044Z,18.70
2018-11-26T05:26:52.742Z,22.20
2018-11-26T05:29:25.970Z,22.97
2018-11-26T05:31:53.812Z,22.77
2018-11-26T05:34:27.284Z,23.03
2018-11-26T05:36:54.982Z,23.53
2018-11-26T05:39:22.706Z,22.33
2018-11-26T05:41:50.434Z,23.93
2018-11-26T05:44:18.176Z,22.73
2018-11-26T05:46:45.908Z,23.67
2018-11-26T05:49:19.295Z,21.60
2018-11-26T05:51:47.008Z,21.13
2018-11-26T05:54:14.708Z,22.47
2018-11-26T05:56:42.448Z,22.47
2018-11-26T05:59:10.138Z,24.20
2018-11-26T06:01:43.452Z,21.00
2018-11-26T06:04:11.124Z,20.27
2018-11-26T06:06:38.848Z,23.43
2018-11-26T06:09:10.116Z,23.43
2018-11-26T06:11:39.192Z,23.47
2018-11-26T06:14:07.033Z,23.27
2018-11-26T06:16:35.956Z,21.77
2018-11-26T06:19:03.807Z,24.67
2018-11-26T06:21:31.490Z,23.00
2018-11-26T06:23:59.922Z,23.23
2018-11-26T06:26:28.973Z,21.80
2018-11-26T06:28:56.684Z,23.70
2018-11-26T06:31:24.402Z,25.97
2018-11-26T06:33:52.066Z,24.53
2018-11-26T06:36:19.895Z,24.70
2018-11-26T06:38:47.644Z,21.37
2018-11-26T06:41:15.359Z,23.03
2018-11-26T06:43:48.656Z,23.90
2018-11-26T06:46:17.792Z,22.30
2018-11-26T06:48:45.476Z,21.67
2018-11-26T06:51:13.210Z,18.37
2018-11-26T06:53:40.898Z,20.33
2018-11-26T06:56:08.642Z,21.33
2018-11-26T06:58:36.336Z,20.33
2018-11-26T07:01:04.122Z,19.40
2018-11-26T07:03:31.835Z,19.93
2018-11-26T07:05:59.575Z,20.27
2018-11-26T07:08:30.560Z,19.00
2018-11-26T07:10:58.262Z,19.63
2018-11-26T07:13:25.980Z,19.80
2018-11-26T07:15:53.687Z,21.20
2018-11-26T07:18:21.404Z,17.23
2018-11-26T07:20:49.128Z,16.53
2018-11-26T07:23:16.803Z,12.37
2018-11-26T07:25:50.308Z,16.20
2018-11-26T07:28:24.618Z,16.20
2018-11-26T07:30:52.400Z,12.93
2018-11-26T07:33:20.120Z,13.10
2018-11-26T07:35:47.848Z,17.30
2018-11-26T07:38:15.611Z,15.83
2018-11-26T07:40:48.872Z,15.87
2018-11-26T07:43:16.603Z,16.87
2018-11-26T07:45:44.287Z,19.17
2018-11-26T07:48:12.259Z,19.07
2018-11-26T07:50:40.007Z,18.07
2018-11-26T07:53:08.882Z,13.57
2018-11-26T07:55:37.184Z,19.47
2018-11-26T07:58:04.932Z,16.97
2018-11-26T08:00:32.642Z,16.50
2018-11-26T08:03:00.372Z,15.30
2018-11-26T08:05:28.094Z,15.30
2018-11-26T08:07:55.844Z,17.23
2018-11-26T08:10:23.914Z,13.23
2018-11-26T08:12:52.778Z,14.47
2018-11-26T08:15:28.128Z,13.60
2018-11-26T08:17:55.899Z,14.77
2018-11-26T08:20:23.711Z,15.40
2018-11-26T08:22:51.420Z,14.17
2018-11-26T08:25:20.172Z,15.23
2018-11-26T08:27:48.572Z,16.60
2018-11-26T08:30:18.419Z,11.70
2018-11-26T08:32:47.568Z,15.37
2018-11-26T08:35:22.428Z,15.77
2018-11-26T08:37:55.740Z,15.93
2018-11-26T08:40:28.880Z,15.00
2018-11-26T08:43:14.956Z,15.27
2018-11-26T08:45:49.613Z,14.60
2018-11-26T08:48:29.888Z,15.40
2018-11-26T08:50:59.534Z,16.33
2018-11-26T08:53:27.363Z,16.13
2018-11-26T08:56:00.671Z,14.00
2018-11-26T08:58:28.323Z,15.50
2018-11-26T09:01:01.767Z,16.10
2018-11-26T09:03:39.884Z,15.47
2018-11-26T09:06:07.676Z,11.83
2018-11-26T09:08:36.513Z,10.30
2018-11-26T09:11:05.276Z,11.70
2018-11-26T09:13:32.949Z,11.97
2018-11-26T09:16:00.632Z,10.33
2018-11-26T09:18:28.384Z,9.77
2018-11-26T09:20:56.125Z,9.37
2018-11-26T09:23:23.811Z,9.30
2018-11-26T09:25:51.507Z,10.60
2018-11-26T09:28:19.260Z,10.60
2018-11-26T09:30:46.989Z,11.83
2018-11-26T09:33:14.765Z,11.93
2018-11-26T09:35:42.530Z,9.77
2018-11-26T09:38:10.222Z,10.40
2018-11-26T09:40:43.524Z,10.20
2018-11-26T09:43:11.323Z,12.97
2018-11-26T09:45:40.397Z,10.27
2018-11-26T09:48:06.887Z,12.30
2018-11-26T09:50:34.676Z,11.30
2018-11-26T09:53:02.377Z,11.63
2018-11-26T09:55:30.115Z,10.83
2018-11-26T09:57:57.814Z,10.13
2018-11-26T10:00:25.549Z,10.17
2018-11-26T10:02:53.277Z,9.50
2018-11-26T10:05:23.099Z,9.57
2018-11-26T10:07:50.846Z,8.40
2018-11-26T10:10:18.632Z,10.97
2018-11-26T10:12:46.326Z,9.70
2018-11-26T10:15:18.051Z,11.83
2018-11-26T10:17:45.873Z,12.23
2018-11-26T10:20:13.551Z,11.20
2018-11-26T10:22:41.904Z,10.37
2018-11-26T10:25:12.080Z,11.17
2018-11-26T10:27:39.985Z,11.20
2018-11-26T10:30:17.792Z,10.80
2018-11-26T10:32:46.160Z,10.53
2018-11-26T10:35:14.857Z,10.50
2018-11-26T10:37:42.660Z,11.83
2018-11-26T10:40:27.107Z,12.20
2018-11-26T10:42:54.852Z,9.83
2018-11-26T10:45:23.712Z,9.50
2018-11-26T10:47:51.419Z,9.77
2018-11-26T10:50:20.775Z,9.23
2018-11-26T10:52:53.627Z,8.90
2018-11-26T10:55:22.881Z,9.80
2018-11-26T10:57:50.724Z,10.80
2018-11-26T11:00:29.835Z,10.73
2018-11-26T11:02:57.515Z,9.53
2018-11-26T11:05:25.256Z,10.30
2018-11-26T11:07:53.032Z,10.00
2018-11-26T11:10:26.992Z,9.90
2018-11-26T11:12:54.715Z,10.10
2018-11-26T11:15:22.430Z,10.13
2018-11-26T11:17:50.131Z,8.47
2018-11-26T11:20:21.052Z,9.13
2018-11-26T11:22:54.320Z,9.67
2018-11-26T11:25:22.402Z,7.40
2018-11-26T11:27:56.503Z,8.07
2018-11-26T11:30:25.551Z,10.03
2018-11-26T11:32:53.070Z,8.20
2018-11-26T11:35:26.450Z,10.27
2018-11-26T11:37:54.630Z,9.67
2018-11-26T11:40:24.483Z,11.10
2018-11-26T11:42:52.491Z,10.07
2018-11-26T11:45:20.816Z,10.13
2018-11-26T11:47:48.504Z,10.83
2018-11-26T11:50:17.504Z,11.40
2018-11-26T11:52:50.902Z,10.13
2018-11-26T11:55:21.760Z,11.43
2018-11-26T11:57:49.856Z,11.20
2018-11-26T12:00:27.520Z,10.70
2018-11-26T12:02:55.242Z,9.70
2018-11-26T12:05:23.056Z,10.63
2018-11-26T12:07:50.766Z,11.33
2018-11-26T12:10:18.450Z,13.30
2018-11-26T12:12:46.160Z,10.63
2018-11-26T12:15:15.220Z,10.63
2018-11-26T12:17:49.194Z,9.77
2018-11-26T12:20:16.892Z,9.47
2018-11-26T12:22:44.874Z,9.87
2018-11-26T12:25:14.683Z,9.60
2018-11-26T12:27:42.405Z,9.53
2018-11-26T12:30:19.548Z,10.53
2018-11-26T12:32:47.244Z,9.70
2018-11-26T12:35:14.975Z,8.90
2018-11-26T12:37:42.660Z,8.50
2018-11-26T12:40:11.807Z,8.47
2018-11-26T12:42:39.475Z,8.17
2018-11-26T12:45:14.694Z,8.23
2018-11-26T12:47:42.361Z,6.30
2018-11-26T12:50:10.063Z,7.13
2018-11-26T12:52:38.107Z,7.10
2018-11-26T12:55:07.826Z,8.30
2018-11-26T12:57:35.804Z,7.50
2018-11-26T13:00:03.970Z,9.77
2018-11-26T13:02:31.632Z,6.20
2018-11-26T13:04:59.323Z,6.63
2018-11-26T13:07:27.008Z,8.53
2018-11-26T13:09:54.664Z,7.67
2018-11-26T13:12:22.332Z,10.40
2018-11-26T13:14:50.046Z,11.00
2018-11-26T13:17:17.706Z,11.97
2018-11-26T13:19:45.392Z,8.07
2018-11-26T13:22:13.082Z,11.97
2018-11-26T13:24:40.788Z,10.37
2018-11-26T13:27:08.461Z,11.60
2018-11-26T13:29:36.154Z,13.43
2018-11-26T13:32:03.845Z,14.90
2018-11-26T13:34:37.308Z,14.80
2018-11-26T13:37:04.842Z,20.27
2018-11-26T13:39:32.532Z,17.43
2018-11-26T13:42:00.225Z,10.30
2018-11-26T13:44:27.883Z,14.57
2018-11-26T13:46:55.621Z,13.47
2018-11-26T13:49:23.321Z,28.50
2018-11-26T13:51:51.037Z,18.60
2018-11-26T13:54:18.721Z,12.73
2018-11-26T13:56:46.453Z,9.33
2018-11-26T13:59:14.144Z,12.23
2018-11-26T14:01:41.809Z,11.30
2018-11-26T14:04:09.492Z,10.97
2018-11-26T14:06:38.053Z,18.53
2018-11-26T14:09:08.566Z,13.63
2018-11-26T14:11:36.235Z,13.97
2018-11-26T14:14:05.282Z,8.50
2018-11-26T14:16:33.005Z,11.00
2018-11-26T14:19:00.725Z,12.00
2018-11-26T14:21:28.425Z,11.47
2018-11-26T14:23:56.205Z,10.73
2018-11-26T14:26:29.357Z,10.43
2018-11-26T14:28:57.084Z,10.57
2018-11-26T14:31:30.233Z,11.07
2018-11-26T14:33:57.955Z,10.40
2018-11-26T14:36:27.399Z,8.83
2018-11-26T14:38:55.079Z,9.93
2018-11-26T14:41:22.833Z,10.10
2018-11-26T14:43:50.595Z,9.33
2018-11-26T14:46:18.338Z,8.93
2018-11-26T14:48:46.138Z,11.87
2018-11-26T14:51:13.838Z,12.37
2018-11-26T14:53:41.565Z,8.13
2018-11-26T14:56:09.294Z,12.77
2018-11-26T14:58:37.035Z,13.67
2018-11-26T15:01:05.056Z,13.17
2018-11-26T15:03:32.807Z,13.13
2018-11-26T15:06:00.497Z,14.03
2018-11-26T15:08:28.215Z,13.23
2018-11-26T15:10:55.937Z,10.70
2018-11-26T15:13:29.335Z,11.53
2018-11-26T15:16:03.579Z,15.60
2018-11-26T15:18:31.559Z,11.50
2018-11-26T15:20:59.291Z,10.20
2018-11-26T15:23:27.018Z,9.63
2018-11-26T15:25:54.755Z,11.90
2018-11-26T15:28:22.441Z,13.80
2018-11-26T15:30:55.729Z,14.47
2018-11-26T15:33:23.406Z,14.90
2018-11-26T15:35:51.419Z,14.07
2018-11-26T15:38:19.222Z,13.00
2018-11-26T15:40:49.856Z,11.63
2018-11-26T15:43:19.082Z,14.73
2018-11-26T15:45:46.841Z,14.23
2018-11-26T15:48:14.572Z,14.33
2018-11-26T15:50:42.353Z,12.17
2018-11-26T15:53:15.976Z,16.07
2018-11-26T15:55:43.823Z,14.13
2018-11-26T15:58:11.549Z,12.90
2018-11-26T16:00:39.269Z,14.53
2018-11-26T16:03:07.115Z,14.63
2018-11-26T16:05:34.932Z,15.07
2018-11-26T16:08:05.056Z,14.97
2018-11-26T16:10:32.778Z,16.20
2018-11-26T16:13:01.632Z,16.90
2018-11-26T16:15:35.609Z,13.03
2018-11-26T16:18:05.489Z,12.93
2018-11-26T16:20:33.181Z,15.80
2018-11-26T16:23:02.429Z,14.40
2018-11-26T16:25:30.165Z,15.10
2018-11-26T16:27:57.876Z,15.67
2018-11-26T16:30:25.653Z,13.53
2018-11-26T16:32:59.041Z,12.87
2018-11-26T16:35:31.152Z,11.63
2018-11-26T16:37:59.069Z,12.70
2018-11-26T16:40:26.797Z,10.60
2018-11-26T16:42:55.500Z,9.57
2018-11-26T16:45:24.674Z,8.63
2018-11-26T16:47:53.185Z,7.80
2018-11-26T16:50:22.234Z,10.43
2018-11-26T16:52:49.973Z,9.47
2018-11-26T16:55:17.983Z,10.67
2018-11-26T16:57:45.925Z,11.50
2018-11-26T17:00:17.796Z,11.23
2018-11-26T17:02:46.406Z,13.07
2018-11-26T17:05:15.615Z,11.60
2018-11-26T17:07:43.317Z,8.00
2018-11-26T17:10:11.255Z,9.83
2018-11-26T17:12:39.616Z,9.30
2018-11-26T17:15:12.192Z,10.07
2018-11-26T17:17:45.557Z,10.30
2018-11-26T17:20:14.713Z,12.77
2018-11-26T17:22:42.590Z,8.00
2018-11-26T17:25:11.471Z,9.43
2018-11-26T17:27:39.821Z,10.80
2018-11-26T17:30:27.932Z,15.67
2018-11-26T17:33:01.476Z,11.00
2018-11-26T17:35:29.846Z,13.27
2018-11-26T17:37:57.571Z,15.97
2018-11-26T17:40:25.737Z,16.90
2018-11-26T17:42:54.071Z,13.97
2018-11-26T17:45:22.486Z,13.13
2018-11-26T17:47:51.696Z,16.33
2018-11-26T17:50:21.725Z,18.70
2018-11-26T17:52:49.547Z,19.03
2018-11-26T17:55:22.971Z,18.53
2018-11-26T17:57:50.740Z,15.93
2018-11-26T18:00:20.845Z,12.93
2018-11-26T18:02:48.650Z,14.43
2018-11-26T18:05:18.629Z,12.70
2018-11-26T18:07:49.322Z,8.87
2018-11-26T18:10:17.052Z,12.97
2018-11-26T18:12:44.801Z,13.13
2018-11-26T18:15:13.568Z,11.77
2018-11-26T18:17:41.783Z,16.93
2018-11-26T18:20:14.771Z,18.13
2018-11-26T18:22:43.424Z,19.07
2018-11-26T18:25:11.638Z,18.17
2018-11-26T18:27:47.027Z,10.40
2018-11-26T18:30:17.574Z,12.03
2018-11-26T18:32:45.296Z,10.90
2018-11-26T18:35:13.392Z,15.60
2018-11-26T18:37:41.100Z,17.00
2018-11-26T18:40:19.204Z,15.60
2018-11-26T18:42:46.960Z,10.83
2018-11-26T18:45:15.971Z,10.53
2018-11-26T18:47:44.219Z,9.23
2018-11-26T18:50:14.316Z,7.33
2018-11-26T18:52:42.896Z,6.10
2018-11-26T18:55:10.954Z,9.17
2018-11-26T18:57:38.706Z,7.90
2018-11-26T19:00:10.910Z,6.37
2018-11-26T19:02:44.331Z,8.97
2018-11-26T19:05:13.079Z,8.57
2018-11-26T19:07:40.900Z,10.40
2018-11-26T19:10:12.913Z,9.77
2018-11-26T19:12:41.476Z,10.07
2018-11-26T19:15:16.477Z,10.60
2018-11-26T19:17:44.241Z,10.00
2018-11-26T19:20:12.396Z,10.50
2018-11-26T19:22:40.998Z,14.33
2018-11-26T19:25:10.508Z,17.40
2018-11-26T19:27:38.219Z,14.43
2018-11-26T19:30:15.377Z,12.53
2018-11-26T19:32:44.248Z,10.27
2018-11-26T19:35:13.450Z,14.60
2018-11-26T19:37:41.183Z,10.20
2018-11-26T19:40:17.956Z,11.80
2018-11-26T19:42:46.402Z,10.83
2018-11-26T19:45:18.658Z,11.67
2018-11-26T19:47:46.537Z,11.73
2018-11-26T19:50:17.411Z,15.27
2018-11-26T19:52:46.295Z,18.47
2018-11-26T19:55:16.239Z,13.20
2018-11-26T19:57:43.949Z,12.07
2018-11-26T20:00:14.729Z,13.23
2018-11-26T20:02:43.139Z,12.20
2018-11-26T20:05:29.529Z,11.67
2018-11-26T20:08:02.950Z,14.40
2018-11-26T20:10:30.683Z,14.87
2018-11-26T20:12:58.427Z,16.07
2018-11-26T20:15:26.191Z,15.47
2018-11-26T20:17:58.910Z,14.13
2018-11-26T20:20:22.848Z,13.00
2018-11-26T20:22:50.593Z,13.70
2018-11-26T20:25:18.683Z,14.27
2018-11-26T20:27:52.062Z,13.30
2018-11-26T20:30:19.917Z,13.20
2018-11-26T20:32:47.993Z,13.83
2018-11-26T20:35:15.697Z,16.10
2018-11-26T20:37:43.467Z,15.33
2018-11-26T20:40:13.376Z,15.17
2018-11-26T20:42:44.398Z,16.23
2018-11-26T20:45:13.556Z,13.17
2018-11-26T20:47:41.366Z,11.70
2018-11-26T20:50:12.287Z,9.00
2018-11-26T20:52:45.641Z,9.90
2018-11-26T20:55:15.001Z,14.00
2018-11-26T20:57:42.708Z,30.43
2018-11-26T21:00:13.981Z,20.27
2018-11-26T21:02:41.850Z,15.20
2018-11-26T21:05:09.725Z,17.10
2018-11-26T21:07:37.416Z,17.87
2018-11-26T21:10:07.721Z,18.90
2018-11-26T21:12:35.421Z,16.40
2018-11-26T21:15:03.664Z,23.60
2018-11-26T21:17:31.488Z,15.90
2018-11-26T21:20:04.766Z,19.77
2018-11-26T21:22:32.536Z,20.37
2018-11-26T21:25:00.282Z,22.67
2018-11-26T21:27:33.765Z,21.33
2018-11-26T21:30:01.448Z,20.47
2018-11-26T21:32:29.140Z,15.00
2018-11-26T21:34:56.875Z,14.33
2018-11-26T21:37:24.607Z,16.27
2018-11-26T21:39:52.292Z,19.23
2018-11-26T21:42:20.074Z,25.47
2018-11-26T21:44:47.983Z,26.20
2018-11-26T21:47:15.689Z,30.00
2018-11-26T21:49:43.601Z,31.70
2018-11-26T21:52:11.382Z,32.40
2018-11-26T21:54:39.145Z,33.00
2018-11-26T21:57:06.954Z,30.50
2018-11-26T21:59:34.685Z,29.53
2018-11-26T22:02:02.443Z,30.57
2018-11-26T22:04:30.194Z,42.83
2018-11-26T22:06:58.191Z,43.90
2018-11-26T22:09:25.905Z,38.43
2018-11-26T22:11:53.669Z,29.00
2018-11-26T22:14:21.461Z,27.83
2018-11-26T22:16:49.281Z,23.30
2018-11-26T22:19:17.051Z,22.23
2018-11-26T22:21:44.865Z,23.83
2018-11-26T22:24:12.583Z,24.17
2018-11-26T22:26:40.335Z,21.93
2018-11-26T22:29:08.060Z,23.53
2018-11-26T22:31:35.795Z,22.70
2018-11-26T22:34:03.561Z,20.00
2018-11-26T22:36:31.326Z,23.63
2018-11-26T22:38:59.050Z,24.10
2018-11-26T22:41:26.800Z,23.80
2018-11-26T22:43:54.553Z,22.77
2018-11-26T22:46:22.260Z,23.43
2018-11-26T22:48:50.053Z,24.40
2018-11-26T22:51:18.325Z,25.70
2018-11-26T22:53:46.025Z,21.83
2018-11-26T22:56:13.783Z,22.63
2018-11-26T22:58:41.508Z,21.20
2018-11-26T23:01:09.241Z,22.40
2018-11-26T23:03:37.010Z,20.30
2018-11-26T23:06:05.112Z,21.73
2018-11-26T23:08:32.831Z,23.37
2018-11-26T23:11:00.634Z,21.10
2018-11-26T23:13:28.303Z,19.90
2018-11-26T23:15:55.985Z,20.53
2018-11-26T23:18:23.761Z,23.40
2018-11-26T23:20:51.509Z,22.87
2018-11-26T23:23:19.213Z,24.20
2018-11-26T23:25:46.969Z,23.87
2018-11-26T23:28:14.685Z,25.40
2018-11-26T23:30:42.394Z,25.17
2018-11-26T23:33:10.145Z,24.13
2018-11-26T23:35:37.862Z,24.43
2018-11-26T23:38:05.721Z,26.23
2018-11-26T23:40:34.242Z,24.57
2018-11-26T23:43:01.703Z,26.03
2018-11-26T23:45:29.620Z,23.93
2018-11-26T23:47:57.348Z,24.27
2018-11-26T23:50:25.030Z,25.17
2018-11-26T23:52:52.740Z,22.63
2018-11-26T23:55:21.737Z,23.07
2018-11-26T23:57:55.125Z,21.53
